Osa, Russia
Current Conditions -  °F | °C
As of 1:30 PM on Saturday 20 Dec 2014 (Local Time) from USPP Reporting Station
Overcast Overcast  
Wind Chill: 18°   Ceiling: 1100
Heat Index: 27°   Visibility: 6mi
Dew Point: 23°   Wind: 9mph
Humidity: 86%   Direction: 160°SSE
Pressure: 29.77"   Gusts: NA
Location:  57.28°N, 55.43°E
Report Text: USPP 200830Z 16004MPS 9999 OVC011 M03/M05 Q1008 21290150 NOSIGRMK QFE745/0994 FBL ICE INC 700-1300
Loading
Personal Weather Stations






























Interactive Weather Map New forecast layout! Learn more

10-Day Weather Forecast

Advertisements
Track Severe Weather on mobile